Time;durP1;ratioP1;P1;durP2;ratioP2;P2;SDS_P1;SDS_P2;PMS_P1;PMS_P2;Temp;Humidity;BMP_temperature;BMP_pressure;BME280_temperature;BME280_humidity;BME280_pressure;Samples;Min_cycle;Max_cycle;Signal;HPM_P1;HPM_P2
2022/08/01 00:00:01;;;;;;;8.53;8.03;;;;;;;18.57;57.58;92800.72;5072270;28;20192;-72
2022/08/01 00:02:30;;;;;;;9.13;8.63;;;;;;;18.54;56.92;92785.50;5071624;28;20239;-71
2022/08/01 00:04:56;;;;;;;9.33;8.73;;;;;;;18.40;55.98;92761.97;5071625;28;20196;-71
2022/08/01 00:07:21;;;;;;;8.70;8.10;;;;;;;18.55;56.25;92787.84;5075749;28;20230;-71
2022/08/01 00:09:47;;;;;;;9.27;8.67;;;;;;;18.42;57.28;92766.94;5092197;28;20246;-72
2022/08/01 00:12:12;;;;;;;8.87;8.40;;;;;;;18.39;56.18;92775.53;5091055;28;20230;-73
2022/08/01 00:14:38;;;;;;;8.87;8.37;;;;;;;18.43;57.09;92789.63;5090931;28;20208;-72
2022/08/01 00:17:03;;;;;;;8.57;8.10;;;;;;;18.48;55.02;92786.81;5090698;28;20182;-71
2022/08/01 00:19:28;;;;;;;9.33;8.83;;;;;;;18.45;55.01;92776.88;5092189;28;20206;-71
2022/08/01 00:21:54;;;;;;;9.50;8.97;;;;;;;18.45;55.17;92772.38;5090407;28;20190;-72
2022/08/01 00:24:19;;;;;;;9.10;8.60;;;;;;;18.54;53.59;92780.22;5089021;28;20182;-71
2022/08/01 00:26:44;;;;;;;8.63;8.23;;;;;;;18.41;52.68;92762.75;5090923;28;20181;-71
2022/08/01 00:29:10;;;;;;;8.13;7.83;;;;;;;18.47;52.74;92785.28;5089868;28;20260;-71
2022/08/01 00:31:35;;;;;;;8.30;7.77;;;;;;;18.31;52.17;92755.19;5090155;28;20185;-73
2022/08/01 00:34:00;;;;;;;7.97;7.60;;;;;;;18.50;51.74;92776.69;5091126;28;20224;-72
2022/08/01 00:36:26;;;;;;;9.00;8.53;;;;;;;18.49;53.00;92783.09;5090728;28;20211;-72
2022/08/01 00:38:51;;;;;;;9.23;8.73;;;;;;;18.51;51.49;92776.38;5090647;28;20303;-71
2022/08/01 00:41:17;;;;;;;8.87;8.30;;;;;;;18.52;50.35;92777.16;5090251;28;20209;-71
2022/08/01 00:43:43;;;;;;;8.53;8.13;;;;;;;18.31;52.01;92760.47;5090136;28;20263;-72
2022/08/01 00:46:08;;;;;;;9.30;8.80;;;;;;;18.40;51.52;92779.69;5090331;28;20181;-72
2022/08/01 00:48:33;;;;;;;8.53;8.03;;;;;;;18.24;52.02;92770.78;5090206;28;20221;-71
2022/08/01 00:50:59;;;;;;;8.13;7.73;;;;;;;18.20;50.76;92756.66;5091351;28;20181;-71
2022/08/01 00:53:25;;;;;;;8.80;8.23;;;;;;;18.37;49.67;92778.47;5076612;28;20225;-71
2022/08/01 00:55:50;;;;;;;8.53;8.00;;;;;;;18.30;50.03;92774.78;5070563;28;20228;-72
2022/08/01 00:58:16;;;;;;;8.40;8.00;;;;;;;18.23;50.25;92763.94;5061842;28;20238;-71
2022/08/01 01:00:42;;;;;;;8.27;7.80;;;;;;;18.24;51.17;92768.13;5059935;28;20200;-72
2022/08/01 01:03:07;;;;;;;9.50;8.80;;;;;;;18.21;51.83;92774.81;5065139;28;20222;-71
2022/08/01 01:05:40;;;;;;;7.77;7.43;;;;;;;18.21;51.42;92772.19;5071098;28;20178;-71
2022/08/01 01:08:16;;;;;;;8.87;8.33;;;;;;;18.11;51.34;92750.66;5068922;28;20233;-71
2022/08/01 01:10:55;;;;;;;7.73;7.37;;;;;;;18.17;51.25;92760.72;5069541;28;20226;-71
2022/08/01 01:13:37;;;;;;;7.77;7.47;;;;;;;18.04;51.59;92747.75;5069249;28;20222;-72
2022/08/01 01:16:09;;;;;;;8.37;7.97;;;;;;;18.08;52.09;92765.28;5070011;28;20189;-71
2022/08/01 01:19:05;;;;;;;7.87;7.47;;;;;;;18.02;52.92;92742.00;5070683;28;20224;-72
2022/08/01 01:21:55;;;;;;;9.00;8.47;;;;;;;18.05;53.43;92752.72;5070252;28;20212;-72
2022/08/01 01:24:45;;;;;;;10.20;8.23;;;;;;;18.11;53.33;92751.44;5070336;28;20217;-72
2022/08/01 01:27:23;;;;;;;8.77;8.37;;;;;;;18.00;53.24;92734.41;5069008;28;21208;-71
2022/08/01 01:29:53;;;;;;;8.30;7.90;;;;;;;18.01;52.83;92732.53;5068991;28;20217;-72
2022/08/01 01:32:33;;;;;;;8.83;8.33;;;;;;;18.07;50.19;92744.47;5073503;28;20256;-71
2022/08/01 01:35:01;;;;;;;8.43;8.00;;;;;;;17.95;51.39;92729.31;5089973;28;20212;-72
2022/08/01 01:37:29;;;;;;;8.50;8.10;;;;;;;18.08;48.29;92738.88;5083644;28;20225;-71
2022/08/01 01:39:56;;;;;;;9.10;8.63;;;;;;;18.09;48.01;92727.19;5070247;28;20177;-71
2022/08/01 01:42:24;;;;;;;9.23;8.63;;;;;;;18.13;48.84;92740.53;5067148;28;20256;-71
2022/08/01 01:44:51;;;;;;;8.00;7.60;;;;;;;18.24;47.18;92739.06;5060240;28;20186;-72
2022/08/01 01:47:17;;;;;;;8.17;7.80;;;;;;;18.20;46.74;92727.56;5068093;28;20225;-72
2022/08/01 01:49:46;;;;;;;9.70;8.80;;;;;;;18.20;47.32;92732.88;5068530;28;20189;-71
2022/08/01 01:52:14;;;;;;;8.90;8.17;;;;;;;17.96;47.56;92704.41;5071416;28;20630;-71
2022/08/01 01:54:44;;;;;;;9.73;9.13;;;;;;;18.12;47.10;92737.13;5090500;28;20213;-71
2022/08/01 01:57:11;;;;;;;8.50;8.10;;;;;;;18.11;47.54;92724.22;5087554;28;20177;-72
2022/08/01 01:59:39;;;;;;;8.60;8.30;;;;;;;17.98;47.58;92714.69;5068784;28;20173;-71
2022/08/01 02:02:07;;;;;;;9.83;9.33;;;;;;;18.11;48.06;92732.16;5070561;28;20185;-72
2022/08/01 02:04:37;;;;;;;8.93;8.53;;;;;;;17.91;46.80;92725.75;5089811;28;20189;-71
2022/08/01 02:07:05;;;;;;;8.27;7.87;;;;;;;17.77;48.87;92711.22;5089214;28;20264;-72
2022/08/01 02:09:33;;;;;;;9.10;8.60;;;;;;;17.90;48.95;92715.50;5089367;28;20185;-71
2022/08/01 02:12:01;;;;;;;8.90;8.40;;;;;;;17.80;46.55;92708.72;5089491;28;20241;-72
2022/08/01 02:14:29;;;;;;;9.13;8.63;;;;;;;17.92;47.10;92724.66;5089161;28;20327;-71
2022/08/01 02:16:57;;;;;;;7.97;7.53;;;;;;;18.06;45.73;92727.06;5088139;28;20189;-72
2022/08/01 02:19:22;;;;;;;9.10;8.50;;;;;;;18.08;46.26;92716.94;5088554;28;20226;-72
2022/08/01 02:22:04;;;;;;;9.63;9.13;;;;;;;18.05;46.35;92718.38;5090120;28;20267;-71
2022/08/01 02:25:05;;;;;;;8.83;8.43;;;;;;;18.10;46.10;92714.75;5069182;28;20245;-71
2022/08/01 02:27:41;;;;;;;8.80;8.40;;;;;;;17.98;46.00;92696.94;5062038;28;20233;-71
2022/08/01 02:30:10;;;;;;;9.17;8.63;;;;;;;18.13;45.62;92708.84;5070531;28;20224;-71
2022/08/01 02:32:42;;;;;;;9.63;8.90;;;;;;;18.17;45.68;92707.09;5074350;28;20232;-72
2022/08/01 02:35:18;;;;;;;8.83;8.33;;;;;;;18.30;45.50;92712.13;5088719;28;20219;-71
2022/08/01 02:37:45;;;;;;;9.23;8.63;;;;;;;18.17;45.73;92691.22;5087104;28;20262;-72
2022/08/01 02:40:13;;;;;;;8.17;7.77;;;;;;;17.98;46.50;92683.75;5090733;28;20248;-72
2022/08/01 02:42:41;;;;;;;8.60;8.20;;;;;;;18.20;46.15;92712.50;5088116;28;20244;-71
2022/08/01 02:45:08;;;;;;;9.83;9.17;;;;;;;18.14;46.16;92691.88;5086881;28;20196;-71
2022/08/01 02:47:37;;;;;;;9.60;9.10;;;;;;;18.21;45.87;92700.81;5079259;28;20261;-71
2022/08/01 02:50:04;;;;;;;9.63;8.97;;;;;;;18.27;45.23;92696.13;5061981;28;20208;-71
2022/08/01 02:52:32;;;;;;;9.17;8.67;;;;;;;18.18;45.15;92676.94;5060923;28;20256;-72
2022/08/01 02:54:59;;;;;;;8.90;8.40;;;;;;;18.28;46.54;92706.38;5068692;28;20213;-71
2022/08/01 02:57:26;;;;;;;8.47;8.07;;;;;;;18.17;46.18;92692.00;5073080;28;20332;-70
2022/08/01 02:59:53;;;;;;;8.47;8.00;;;;;;;18.23;46.73;92709.22;5088605;28;20203;-70
2022/08/01 03:02:21;;;;;;;8.10;7.70;;;;;;;18.16;46.56;92702.91;5088308;28;20235;-71
2022/08/01 03:04:48;;;;;;;9.10;8.70;;;;;;;18.15;47.04;92696.84;5088507;28;20181;-73
2022/08/01 03:07:15;;;;;;;8.57;8.17;;;;;;;18.08;48.53;92699.22;5088340;28;20229;-72
2022/08/01 03:09:44;;;;;;;8.93;8.43;;;;;;;18.00;47.01;92688.69;5089444;28;20209;-71
2022/08/01 03:12:14;;;;;;;9.97;9.40;;;;;;;17.98;47.72;92693.56;5090736;28;20246;-71
2022/08/01 03:14:42;;;;;;;9.37;8.90;;;;;;;18.14;48.13;92718.28;5090823;28;20235;-72
2022/08/01 03:17:09;;;;;;;9.60;9.00;;;;;;;17.97;47.54;92690.13;5090631;28;20197;-71
2022/08/01 03:19:37;;;;;;;9.40;8.67;;;;;;;18.03;47.77;92714.47;5091085;28;20220;-71
2022/08/01 03:22:09;;;;;;;8.70;8.20;;;;;;;18.06;48.91;92711.19;5091892;28;20177;-71
2022/08/01 03:24:36;;;;;;;8.50;8.10;;;;;;;18.05;48.25;92709.66;5091852;28;20189;-72
2022/08/01 03:27:03;;;;;;;9.90;9.40;;;;;;;18.21;47.47;92715.94;5090509;28;20180;-71
2022/08/01 03:29:31;;;;;;;9.63;9.00;;;;;;;18.25;47.22;92716.81;5091501;28;20232;-70
2022/08/01 03:31:58;;;;;;;9.40;8.80;;;;;;;18.37;46.97;92717.66;5091067;28;20223;-71
2022/08/01 03:34:23;;;;;;;9.10;8.70;;;;;;;18.26;47.40;92694.56;5091628;28;20220;-70
2022/08/01 03:36:55;;;;;;;8.33;7.93;;;;;;;18.44;46.89;92711.88;5092038;28;20201;-71
2022/08/01 03:39:24;;;;;;;8.50;7.70;;;;;;;18.68;46.52;92719.91;5091134;28;20277;-71
2022/08/01 03:42:01;;;;;;;8.57;8.07;;;;;;;18.66;46.83;92725.53;5091995;28;20199;-71
2022/08/01 03:44:31;;;;;;;8.93;8.23;;;;;;;18.66;47.66;92727.41;5091712;28;20253;-71
2022/08/01 03:47:04;;;;;;;9.27;8.67;;;;;;;18.72;48.35;92718.19;5091426;28;20190;-71
2022/08/01 03:49:37;;;;;;;8.17;7.77;;;;;;;18.45;47.61;92700.22;5092131;28;20251;-71
2022/08/01 03:52:06;;;;;;;8.07;7.67;;;;;;;18.83;47.44;92714.78;5091928;28;20185;-72
2022/08/01 03:54:36;;;;;;;9.43;8.93;;;;;;;18.85;46.70;92709.16;5092671;28;20208;-71
2022/08/01 03:57:02;;;;;;;8.30;7.67;;;;;;;18.78;47.14;92707.06;5117353;27;20250;-71
2022/08/01 03:59:29;;;;;;;10.07;8.83;;;;;;;18.85;47.16;92711.81;5091490;28;20192;-71
2022/08/01 04:01:55;;;;;;;10.20;9.47;;;;;;;18.97;46.38;92719.81;5091807;28;20194;-71
2022/08/01 04:04:21;;;;;;;9.00;8.50;;;;;;;18.58;46.52;92654.22;5091659;28;20189;-72
2022/08/01 04:06:50;;;;;;;8.90;8.50;;;;;;;19.12;47.42;92716.53;5091986;28;20193;-71
2022/08/01 04:09:15;;;;;;;9.70;9.10;;;;;;;18.91;47.61;92681.44;5091165;28;20214;-71
2022/08/01 04:11:41;;;;;;;9.77;8.83;;;;;;;18.91;47.68;92689.38;5091967;28;20193;-73
2022/08/01 04:14:07;;;;;;;8.87;8.37;;;;;;;19.06;47.48;92699.31;5091727;28;20218;-71
2022/08/01 04:16:33;;;;;;;9.53;8.87;;;;;;;19.10;47.34;92711.56;5092082;28;20189;-70
2022/08/01 04:18:58;;;;;;;8.93;8.53;;;;;;;19.17;47.14;92719.72;5090639;28;20221;-69
2022/08/01 04:21:30;;;;;;;9.27;8.73;;;;;;;19.19;47.45;92716.78;5090864;28;20181;-68
2022/08/01 04:24:20;;;;;;;8.47;8.07;;;;;;;19.32;47.21;92721.00;5091209;28;20232;-69
2022/08/01 04:26:47;;;;;;;8.60;8.00;;;;;;;19.38;47.04;92716.28;5091487;28;20193;-70
2022/08/01 04:29:14;;;;;;;9.73;9.23;;;;;;;19.34;47.06;92712.72;5089492;28;20238;-68
2022/08/01 04:31:44;;;;;;;8.97;8.47;;;;;;;19.45;47.05;92714.63;5091203;28;20181;-69
2022/08/01 04:34:14;;;;;;;8.43;8.03;;;;;;;19.47;46.95;92716.94;5090417;28;20228;-69
2022/08/01 04:36:41;;;;;;;8.87;8.37;;;;;;;19.44;45.83;92712.31;5091151;28;20216;-69
2022/08/01 04:39:09;;;;;;;8.77;8.20;;;;;;;19.54;47.22;92707.34;5090172;28;20213;-69
2022/08/01 04:41:37;;;;;;;9.03;8.53;;;;;;;19.58;46.02;92726.75;5090820;28;20187;-70
2022/08/01 04:44:02;;;;;;;8.97;8.47;;;;;;;19.61;45.50;92717.41;5090420;28;20248;-69
2022/08/01 04:46:29;;;;;;;8.80;8.30;;;;;;;19.72;45.35;92719.25;5091084;28;20187;-69
2022/08/01 04:48:55;;;;;;;9.73;8.97;;;;;;;19.86;45.43;92719.69;5089549;28;20217;-70
2022/08/01 04:51:22;;;;;;;8.93;8.33;;;;;;;20.04;45.83;92721.03;5090759;28;20245;-71
2022/08/01 04:53:48;;;;;;;9.30;8.40;;;;;;;19.84;45.52;92711.34;5089964;28;20252;-69
2022/08/01 04:56:13;;;;;;;8.63;8.13;;;;;;;19.94;44.80;92718.03;5091394;28;20190;-69
2022/08/01 04:58:40;;;;;;;8.13;7.73;;;;;;;19.99;44.56;92715.94;5090652;28;20236;-69
2022/08/01 05:01:06;;;;;;;10.30;9.40;;;;;;;20.02;44.61;92717.16;5090539;28;20191;-69
2022/08/01 05:03:31;;;;;;;8.50;8.10;;;;;;;20.28;46.16;92721.00;5089721;28;20239;-70
2022/08/01 05:05:57;;;;;;;8.90;8.37;;;;;;;20.22;45.44;92721.56;5089457;28;20232;-68
2022/08/01 05:08:22;;;;;;;8.27;7.87;;;;;;;19.81;44.70;92664.31;5091458;28;20256;-71
2022/08/01 05:10:47;;;;;;;8.13;7.73;;;;;;;20.32;45.06;92718.47;5089472;28;20253;-70
2022/08/01 05:13:13;;;;;;;8.57;7.77;;;;;;;20.46;44.67;92708.25;5089882;28;20238;-70
2022/08/01 05:15:38;;;;;;;9.50;8.87;;;;;;;20.46;44.85;92710.91;5088713;28;21652;-71
2022/08/01 05:18:04;;;;;;;9.27;8.50;;;;;;;20.45;43.77;92726.03;5075731;28;20278;-71
2022/08/01 05:20:29;;;;;;;9.10;8.57;;;;;;;20.05;44.19;92693.41;5069191;28;20211;-71
2022/08/01 05:22:55;;;;;;;8.87;8.37;;;;;;;20.49;44.96;92721.63;5078439;28;20251;-70
2022/08/01 05:25:20;;;;;;;8.97;8.47;;;;;;;20.31;44.31;92688.50;5088824;28;20190;-71
2022/08/01 05:27:46;;;;;;;9.13;8.37;;;;;;;20.39;44.40;92700.88;5087462;28;20218;-72
2022/08/01 05:30:12;;;;;;;9.10;8.60;;;;;;;20.65;44.61;92705.78;5086240;28;20751;-69
2022/08/01 05:32:38;;;;;;;9.03;8.30;;;;;;;20.71;43.83;92701.75;5088077;28;20260;-69
2022/08/01 05:35:04;;;;;;;8.80;8.30;;;;;;;20.72;43.79;92697.25;5087892;28;20229;-72
2022/08/01 05:37:29;;;;;;;8.87;8.33;;;;;;;20.76;43.78;92692.78;5081121;28;20231;-73
2022/08/01 05:39:55;;;;;;;8.80;8.17;;;;;;;20.91;43.57;92713.28;5064464;28;20208;-71
2022/08/01 05:42:21;;;;;;;8.47;7.87;;;;;;;20.80;42.90;92709.56;5067663;28;20265;-71
2022/08/01 05:44:47;;;;;;;7.63;7.23;;;;;;;20.50;43.16;92685.25;5065795;28;20208;-72
2022/08/01 05:47:12;;;;;;;8.67;8.27;;;;;;;21.00;43.70;92713.91;5068989;28;20242;-71
2022/08/01 05:49:38;;;;;;;8.83;8.27;;;;;;;20.64;43.43;92691.72;5087705;28;20203;-71
2022/08/01 05:52:04;;;;;;;8.57;8.07;;;;;;;21.44;42.48;92689.66;5084014;28;20199;-70
2022/08/01 05:54:30;;;;;;;8.32;7.93;;;;;;;23.88;38.20;92714.81;5061495;28;20536;-73
2022/08/01 05:56:59;;;;;;;8.15;7.68;;;;;;;22.96;38.45;92718.50;5059647;28;20307;-73
2022/08/01 05:59:25;;;;;;;8.68;8.25;;;;;;;24.31;37.60;92738.34;5060345;28;20186;-74
2022/08/01 06:01:50;;;;;;;8.07;7.63;;;;;;;27.13;32.78;92742.59;5058276;28;20233;-75
2022/08/01 06:04:16;;;;;;;8.48;7.97;;;;;;;28.49;29.49;92730.56;5060512;28;20189;-70
2022/08/01 06:06:41;;;;;;;8.15;7.60;;;;;;;29.49;29.00;92731.41;5060970;28;20212;-69
2022/08/01 06:09:06;;;;;;;8.27;7.72;;;;;;;30.77;26.80;92753.59;5067092;28;21167;-73
2022/08/01 06:11:32;;;;;;;8.30;7.70;;;;;;;28.44;29.13;92742.44;5069132;28;20218;-70
2022/08/01 06:13:57;;;;;;;7.38;6.97;;;;;;;28.95;28.27;92734.66;5085432;28;20847;-72
2022/08/01 06:16:23;;;;;;;7.75;7.25;;;;;;;30.36;26.46;92752.78;5087664;28;20188;-71
2022/08/01 06:18:48;;;;;;;7.28;6.80;;;;;;;28.72;29.06;92737.03;5086998;28;20216;-71
2022/08/01 06:21:14;;;;;;;7.30;6.90;;;;;;;28.72;29.19;92749.72;5086297;28;20222;-73
2022/08/01 06:23:41;;;;;;;8.20;7.75;;;;;;;28.80;28.86;92752.00;5087321;28;20254;-72
2022/08/01 06:26:06;;;;;;;7.00;6.65;;;;;;;29.66;28.09;92754.78;5087151;28;20175;-72
2022/08/01 06:28:32;;;;;;;7.63;7.00;;;;;;;30.74;26.61;92757.06;5087131;28;20258;-71
2022/08/01 06:30:58;;;;;;;7.72;7.22;;;;;;;30.44;27.63;92765.81;5088001;28;20185;-71
2022/08/01 06:33:24;;;;;;;7.18;6.78;;;;;;;30.14;27.61;92751.38;5087569;28;20223;-72
2022/08/01 06:35:49;;;;;;;7.22;6.80;;;;;;;27.70;31.21;92734.34;5087831;28;20223;-71
2022/08/01 06:38:15;;;;;;;7.55;7.05;;;;;;;27.67;30.30;92739.72;5088852;28;20224;-73
2022/08/01 06:40:40;;;;;;;8.27;7.68;;;;;;;25.22;34.46;92737.66;5086660;28;20201;-72
2022/08/01 06:43:06;;;;;;;7.47;7.13;;;;;;;23.57;37.63;92729.94;5077611;28;20225;-72
2022/08/01 06:45:31;;;;;;;9.38;8.65;;;;;;;23.13;39.83;92728.72;5067796;28;20240;-73
2022/08/01 06:47:56;;;;;;;9.52;8.82;;;;;;;22.83;40.21;92693.16;5067892;28;20247;-72
2022/08/01 06:50:22;;;;;;;11.55;8.50;;;;;;;22.80;41.41;92725.78;5067514;28;20179;-71
2022/08/01 07:17:14;;;;;;;10.13;9.60;;;;;;;21.94;44.14;92702.25;5094689;27;20392;-72
2022/08/01 07:19:39;;;;;;;10.20;9.60;;;;;;;21.81;43.84;92706.13;5046612;28;20197;-71
2022/08/01 07:22:05;;;;;;;9.63;9.13;;;;;;;21.83;43.71;92699.38;5044843;28;20280;-71
2022/08/01 07:24:31;;;;;;;9.82;9.05;;;;;;;22.03;44.90;92700.19;5046412;28;20193;-73
2022/08/01 07:26:57;;;;;;;9.25;8.68;;;;;;;22.38;44.52;92724.13;5039949;28;20194;-73
2022/08/01 07:29:24;;;;;;;9.40;8.90;;;;;;;22.74;44.54;92732.50;5045545;28;20999;-72
2022/08/01 07:31:50;;;;;;;12.27;9.38;;;;;;;22.27;44.46;92708.69;5045597;28;20247;-72
2022/08/01 07:34:15;;;;;;;9.25;8.75;;;;;;;22.18;45.05;92704.69;5045375;28;20247;-72
2022/08/01 07:36:41;;;;;;;9.90;9.18;;;;;;;21.70;44.35;92689.13;5044858;28;20215;-71
2022/08/01 07:39:06;;;;;;;9.60;9.10;;;;;;;22.08;45.38;92702.56;5045862;28;20232;-71
2022/08/01 07:41:31;;;;;;;9.23;8.52;;;;;;;21.98;45.19;92695.13;5042158;28;20200;-74
2022/08/01 07:43:57;;;;;;;9.85;9.23;;;;;;;22.61;44.74;92712.50;5044745;28;20246;-72
2022/08/01 07:46:22;;;;;;;9.25;8.80;;;;;;;22.95;43.28;92716.97;5045584;28;20315;-72
2022/08/01 07:48:48;;;;;;;9.32;8.57;;;;;;;22.34;43.47;92712.63;5044270;28;20453;-71
2022/08/01 07:51:13;;;;;;;9.35;8.80;;;;;;;22.53;45.08;92716.13;5045149;28;20190;-72
2022/08/01 07:53:38;;;;;;;9.55;8.88;;;;;;;22.35;44.18;92709.63;5044193;28;20221;-73
2022/08/01 07:56:06;;;;;;;9.35;8.75;;;;;;;22.53;42.13;92708.13;5043409;28;20211;-71
2022/08/01 07:58:31;;;;;;;10.57;9.90;;;;;;;22.78;43.27;92706.75;5043811;28;20207;-74
2022/08/01 08:00:57;;;;;;;9.15;8.65;;;;;;;22.86;43.65;92692.47;5045328;28;20194;-72
2022/08/01 08:03:22;;;;;;;11.95;8.93;;;;;;;22.75;43.96;92691.47;5044119;28;20236;-73
2022/08/01 08:05:48;;;;;;;9.43;8.68;;;;;;;22.37;43.51;92706.63;5044762;28;20191;-72
2022/08/01 08:08:15;;;;;;;8.88;8.40;;;;;;;22.73;44.53;92716.88;5044163;28;20232;-72
2022/08/01 08:10:41;;;;;;;8.98;7.97;;;;;;;22.91;44.29;92705.47;5044012;28;20214;-72
2022/08/01 08:13:06;;;;;;;10.10;9.30;;;;;;;22.62;42.72;92702.59;5044650;28;20237;-72
2022/08/01 08:15:31;;;;;;;9.23;8.73;;;;;;;22.68;43.34;92717.19;5042747;28;20231;-71
2022/08/01 08:17:57;;;;;;;9.05;8.55;;;;;;;22.50;43.89;92716.78;5045132;28;20233;-72
2022/08/01 08:20:24;;;;;;;9.30;8.80;;;;;;;22.52;44.55;92719.13;5043853;28;20197;-71
2022/08/01 08:22:51;;;;;;;9.05;8.65;;;;;;;22.66;43.77;92706.13;5044018;28;20229;-72
2022/08/01 08:25:16;;;;;;;8.90;8.30;;;;;;;22.81;43.76;92713.25;5044170;28;20200;-73
2022/08/01 08:27:42;;;;;;;8.80;8.40;;;;;;;22.73;44.15;92696.38;5036909;28;20226;-72
2022/08/01 08:30:08;;;;;;;8.65;8.15;;;;;;;22.93;42.66;92719.22;5031235;28;20248;-71
2022/08/01 08:32:35;;;;;;;9.43;8.65;;;;;;;22.77;42.46;92710.50;5028706;28;20708;-73
2022/08/01 08:35:01;;;;;;;9.30;8.55;;;;;;;22.77;43.21;92709.75;5032025;28;20173;-72
2022/08/01 08:37:26;;;;;;;8.95;8.45;;;;;;;22.74;42.23;92719.19;5030808;28;20296;-72
2022/08/01 08:39:52;;;;;;;9.25;8.65;;;;;;;22.60;43.62;92726.91;5031734;28;20187;-71
2022/08/01 08:42:18;;;;;;;9.32;8.82;;;;;;;22.65;43.29;92713.31;5028950;28;20257;-72
2022/08/01 08:44:44;;;;;;;9.20;7.70;;;;;;;23.04;42.87;92725.50;5032163;28;20712;-71
2022/08/01 08:47:12;;;;;;;9.52;9.00;;;;;;;22.60;43.38;92713.59;5031180;28;20260;-71
2022/08/01 08:49:38;;;;;;;9.68;9.02;;;;;;;22.65;43.72;92710.66;5054486;28;20185;-72
2022/08/01 08:52:04;;;;;;;9.00;8.38;;;;;;;22.68;42.32;92707.28;5030685;28;20226;-72
2022/08/01 08:54:31;;;;;;;9.48;8.98;;;;;;;22.82;42.98;92712.91;5031386;28;20717;-72
2022/08/01 08:56:58;;;;;;;8.98;8.45;;;;;;;22.78;42.29;92705.97;5030869;28;20219;-72
2022/08/01 08:59:26;;;;;;;8.75;8.00;;;;;;;22.83;42.68;92697.72;5030918;28;20189;-72
2022/08/01 09:01:52;;;;;;;9.98;9.38;;;;;;;22.99;43.04;92709.81;5029456;28;20185;-73
2022/08/01 09:04:20;;;;;;;8.90;8.45;;;;;;;23.21;41.79;92706.41;5030277;28;20207;-72
2022/08/01 09:06:46;;;;;;;8.95;8.45;;;;;;;23.09;42.11;92706.59;5031359;28;20204;-72
2022/08/01 09:09:11;;;;;;;8.23;7.72;;;;;;;22.91;41.67;92673.50;5029614;28;20224;-72
2022/08/01 09:11:37;;;;;;;8.18;7.78;;;;;;;22.77;42.61;92686.56;5031420;28;20189;-73
2022/08/01 09:14:12;;;;;;;9.38;8.70;;;;;;;22.69;41.39;92692.09;5029666;28;21268;-72
2022/08/01 09:16:44;;;;;;;8.70;8.00;;;;;;;22.66;42.91;92701.56;5030952;28;20256;-72
2022/08/01 09:19:15;;;;;;;9.20;8.70;;;;;;;22.98;41.95;92699.50;5031091;28;20245;-72
2022/08/01 09:21:59;;;;;;;8.30;7.68;;;;;;;23.05;41.63;92695.06;5031469;28;20188;-71
2022/08/01 09:24:26;;;;;;;8.98;8.48;;;;;;;23.14;42.73;92698.31;5030686;28;20909;-72
2022/08/01 09:26:52;;;;;;;8.82;8.38;;;;;;;22.93;41.72;92697.91;5029749;28;20202;-72
2022/08/01 09:29:21;;;;;;;9.27;8.88;;;;;;;22.99;42.44;92704.47;5030371;28;20184;-73
2022/08/01 09:31:47;;;;;;;8.95;8.50;;;;;;;23.14;44.23;92700.19;5030962;28;20212;-72
2022/08/01 09:34:14;;;;;;;9.07;8.48;;;;;;;23.08;41.87;92688.28;5030527;28;20221;-73
2022/08/01 09:36:51;;;;;;;8.75;8.30;;;;;;;23.20;42.85;92694.22;5031093;28;20217;-72
2022/08/01 09:39:17;;;;;;;9.25;8.75;;;;;;;23.05;42.07;92704.97;5025343;28;20242;-72
2022/08/01 09:41:42;;;;;;;9.50;9.00;;;;;;;23.05;43.38;92687.09;5029465;28;20190;-72
2022/08/01 09:44:08;;;;;;;9.00;8.40;;;;;;;23.06;42.63;92675.34;5030396;28;20225;-72
2022/08/01 09:46:34;;;;;;;8.75;8.30;;;;;;;22.95;42.24;92689.56;5029755;28;20209;-73
2022/08/01 09:49:04;;;;;;;9.23;8.63;;;;;;;23.20;43.61;92680.13;5029281;28;20321;-72
2022/08/01 09:51:37;;;;;;;9.50;8.90;;;;;;;23.27;42.35;92681.03;5029843;28;20196;-72
2022/08/01 09:54:05;;;;;;;8.20;7.80;;;;;;;23.49;43.02;92687.50;5030067;28;20276;-72
2022/08/01 09:56:39;;;;;;;9.85;9.35;;;;;;;23.68;43.29;92672.22;5030349;28;20309;-72
2022/08/01 09:59:05;;;;;;;9.32;8.73;;;;;;;23.66;42.53;92693.13;5029962;28;20249;-72
2022/08/01 10:02:00;;;;;;;9.48;8.80;;;;;;;23.58;43.54;92694.16;5030341;28;20292;-72
2022/08/01 10:04:25;;;;;;;8.60;8.20;;;;;;;23.63;43.44;92693.06;5028401;28;20238;-73
2022/08/01 10:06:53;;;;;;;9.30;8.80;;;;;;;23.71;43.73;92690.19;5028730;28;20186;-75
2022/08/01 10:09:33;;;;;;;8.93;8.52;;;;;;;23.55;42.06;92681.53;5029971;28;20193;-73
2022/08/01 10:12:00;;;;;;;8.93;8.43;;;;;;;23.72;42.35;92681.03;5029316;28;20184;-73
2022/08/01 10:14:27;;;;;;;9.52;8.82;;;;;;;23.88;41.76;92682.81;5029699;28;20185;-72
2022/08/01 10:16:55;;;;;;;10.10;9.43;;;;;;;24.00;41.53;92659.38;5029074;28;21123;-72
2022/08/01 10:19:23;;;;;;;10.18;9.57;;;;;;;24.22;42.16;92677.22;5028645;28;20221;-72
2022/08/01 10:21:53;;;;;;;9.32;8.82;;;;;;;24.04;42.35;92678.13;5026722;28;20214;-73
2022/08/01 10:24:23;;;;;;;9.20;8.38;;;;;;;24.20;41.80;92652.03;5029743;28;20224;-73
2022/08/01 10:26:52;;;;;;;9.30;8.80;;;;;;;24.42;41.54;92662.63;5028174;28;20252;-72
2022/08/01 10:29:20;;;;;;;8.80;8.10;;;;;;;24.33;41.02;92664.06;5028276;28;20217;-72
2022/08/01 10:31:49;;;;;;;8.63;8.23;;;;;;;23.66;41.35;92623.81;5029740;28;20240;-73
2022/08/01 10:34:18;;;;;;;8.85;8.38;;;;;;;23.70;41.67;92659.28;5028853;28;20222;-72
2022/08/01 10:36:48;;;;;;;9.32;8.63;;;;;;;24.01;42.71;92665.50;5028345;28;20249;-72
2022/08/01 10:39:14;;;;;;;9.18;8.70;;;;;;;24.44;41.19;92673.72;5026286;28;20243;-72
2022/08/01 10:41:40;;;;;;;8.32;7.93;;;;;;;24.85;40.00;92672.72;5029482;28;20189;-72
2022/08/01 10:44:09;;;;;;;9.55;8.95;;;;;;;24.63;38.36;92667.47;5029025;28;20230;-73
2022/08/01 10:46:38;;;;;;;8.48;7.97;;;;;;;24.10;39.42;92677.44;5029482;28;20207;-73
2022/08/01 10:49:11;;;;;;;8.73;8.23;;;;;;;24.29;39.91;92649.88;5028412;28;20240;-73
2022/08/01 10:51:39;;;;;;;8.70;8.23;;;;;;;24.31;39.92;92664.38;5028360;28;20189;-72
2022/08/01 10:54:09;;;;;;;9.18;8.38;;;;;;;24.22;40.54;92657.81;5028154;28;20232;-73
2022/08/01 10:56:39;;;;;;;8.55;8.15;;;;;;;24.48;39.73;92669.22;5029061;28;20213;-73
2022/08/01 10:59:05;;;;;;;9.30;8.80;;;;;;;24.27;39.25;92658.25;5028012;28;20216;-73
2022/08/01 11:01:34;;;;;;;8.55;8.05;;;;;;;24.27;39.73;92649.47;5029319;28;20177;-72
2022/08/01 11:03:59;;;;;;;8.57;8.07;;;;;;;24.16;39.82;92661.88;5028693;28;20250;-72
2022/08/01 11:06:39;;;;;;;8.60;7.95;;;;;;;24.25;40.39;92663.16;5029484;28;20193;-72
2022/08/01 11:09:15;;;;;;;8.93;8.25;;;;;;;24.27;39.74;92652.91;5022279;28;20241;-73
2022/08/01 11:12:08;;;;;;;8.25;7.85;;;;;;;24.20;41.48;92662.72;5029803;28;20253;-72
2022/08/01 11:14:34;;;;;;;9.10;8.60;;;;;;;24.13;40.43;92667.94;5028798;28;20214;-73
2022/08/01 11:17:38;;;;;;;9.30;8.80;;;;;;;23.96;41.14;92663.09;5024581;28;20260;-73
2022/08/01 11:20:08;;;;;;;8.68;8.18;;;;;;;24.00;40.16;92643.38;5029197;28;20196;-73
2022/08/01 11:23:04;;;;;;;8.65;8.25;;;;;;;24.39;39.82;92657.25;5027681;28;20244;-73
2022/08/01 11:25:36;;;;;;;8.85;8.40;;;;;;;24.13;39.83;92660.72;5027182;28;20182;-72
2022/08/01 11:28:13;;;;;;;8.70;8.20;;;;;;;24.40;40.66;92653.44;5028399;28;20334;-73
2022/08/01 11:30:43;;;;;;;8.18;7.57;;;;;;;24.25;39.91;92649.81;5027344;28;20187;-72
2022/08/01 11:33:09;;;;;;;27.40;11.23;;;;;;;24.21;41.92;92648.25;5028092;28;20237;-73
2022/08/01 11:35:36;;;;;;;8.35;7.90;;;;;;;24.33;40.27;92630.09;5028496;28;20201;-71
2022/08/01 11:38:28;;;;;;;13.75;9.13;;;;;;;24.12;40.68;92634.41;5028878;28;20231;-72
2022/08/01 11:41:32;;;;;;;8.07;7.45;;;;;;;24.19;40.30;92645.19;5026432;28;20201;-72
2022/08/01 11:43:57;;;;;;;8.27;7.85;;;;;;;24.13;41.75;92646.59;5027923;28;20224;-73
2022/08/01 11:46:56;;;;;;;8.73;8.02;;;;;;;24.32;41.10;92641.13;5029388;28;20250;-73
2022/08/01 11:49:47;;;;;;;9.48;8.82;;;;;;;23.58;41.66;92600.09;5028337;28;20208;-73
2022/08/01 11:52:15;;;;;;;7.30;7.00;;;;;;;23.94;41.68;92644.03;5028226;28;20229;-72
2022/08/01 11:54:42;;;;;;;8.77;8.27;;;;;;;24.04;41.54;92654.09;5028506;28;20196;-71
2022/08/01 11:57:22;;;;;;;9.20;8.70;;;;;;;24.44;41.81;92652.38;5028546;28;20238;-72
2022/08/01 11:59:56;;;;;;;8.23;7.82;;;;;;;24.09;41.65;92643.91;5028936;28;20263;-72
2022/08/01 12:02:27;;;;;;;8.90;8.32;;;;;;;23.93;40.96;92645.94;5027700;28;20239;-71
2022/08/01 12:04:56;;;;;;;8.07;7.68;;;;;;;23.82;41.94;92633.56;5032886;28;20204;-72